Station Historical Data
Daily Summary for April 22, 2017 Units:  Both    English   Metric
« Previous Day
Next Day »
Daily Weekly Monthly Yearly Custom
  High: Low: Average:
Temperature: 54.2 °F /  12.3 °C 38.6 °F /  3.7 °C 45 °F /  7.2 °C
Dew Point: 40.3 °F /  4.6 °C 33.7 °F /  0.9 °C 36.1 °F /  2.3 °C
Humidity: 84% 47% 72%
Wind Speed: 10.0mph /  16.1km/h - 3.2mph /  5.1km/h
Wind Gust: 14.0mph /  22.5km/h - -
Wind- - WNW
Pressure: 30.14 in /  1020.5 hPa 30.00 in /  1015.8 hPa -
Precipitation: 0.00 in /  0 mm    
Historical Graphs
 
 
Tabular Data for April 22, 2017
Time Temperature Dew Point Pressure Wind Wind Speed Wind Gust Humidity Rainfall Rate (Hourly)
00:04 45.3 °F /  7.4 °C 38.2 °F /  3.4 °C 30.02in /  1016.5hPa West 5.0mph /  8km/h 10.0mph /  16.1km/h 76% 0.00in /  0mm
00:09 45.2 °F /  7.3 °C 38.1 °F /  3.4 °C 30.02in /  1016.5hPa West 4.0mph /  6.4km/h 10.0mph /  16.1km/h 76% 0.00in /  0mm
00:14 45.2 °F /  7.3 °C 38.1 °F /  3.4 °C 30.02in /  1016.5hPa West 5.0mph /  8km/h 9.0mph /  14.5km/h 76% 0.00in /  0mm
00:19 45.1 °F /  7.3 °C 38.3 °F /  3.5 °C 30.02in /  1016.5hPa West 4.0mph /  6.4km/h 9.0mph /  14.5km/h 77% 0.00in /  0mm
00:24 45.1 °F /  7.3 °C 38.3 °F /  3.5 °C 30.02in /  1016.5hPa West 3.0mph /  4.8km/h 9.0mph /  14.5km/h 77% 0.00in /  0mm
00:29 45.0 °F /  7.2 °C 38.6 °F /  3.7 °C 30.03in /  1016.8hPa WSW 2.0mph /  3.2km/h 8.0mph /  12.9km/h 78% 0.00in /  0mm
00:34 45.0 °F /  7.2 °C 38.2 °F /  3.4 °C 30.03in /  1016.8hPa West 6.0mph /  9.7km/h 10.0mph /  16.1km/h 77% 0.00in /  0mm
00:39 44.9 °F /  7.2 °C 38.1 °F /  3.4 °C 30.03in /  1016.8hPa West 3.0mph /  4.8km/h 7.0mph /  11.3km/h 77% 0.00in /  0mm
00:44 44.8 °F /  7.1 °C 38.0 °F /  3.3 °C 30.03in /  1016.8hPa West 4.0mph /  6.4km/h 8.0mph /  12.9km/h 77% 0.00in /  0mm
00:49 44.8 °F /  7.1 °C 38.4 °F /  3.6 °C 30.03in /  1016.8hPa West 4.0mph /  6.4km/h 8.0mph /  12.9km/h 78% 0.00in /  0mm
00:54 44.8 °F /  7.1 °C 38.0 °F /  3.3 °C 30.03in /  1016.8hPa WNW 4.0mph /  6.4km/h 10.0mph /  16.1km/h 77% 0.00in /  0mm
00:59 44.6 °F /  7 °C 38.2 °F /  3.4 °C 30.03in /  1016.8hPa NNW 1.0mph /  1.6km/h 6.0mph /  9.7km/h 78% 0.00in /  0mm
01:04 44.3 °F /  6.8 °C 37.9 °F /  3.3 °C 30.03in /  1016.8hPa NW 3.0mph /  4.8km/h 8.0mph /  12.9km/h 78% 0.00in /  0mm
01:09 44.0 °F /  6.7 °C 37.9 °F /  3.3 °C 30.03in /  1016.8hPa WNW 10.0mph /  16.1km/h 10.0mph /  16.1km/h 79% 0.00in /  0mm
01:14 43.8 °F /  6.6 °C 37.4 °F /  3 °C 30.03in /  1016.8hPa NW 4.0mph /  6.4km/h 10.0mph /  16.1km/h 78% 0.00in /  0mm
01:19 43.6 °F /  6.4 °C 37.2 °F /  2.9 °C 30.03in /  1016.8hPa NW 5.0mph /  8km/h 10.0mph /  16.1km/h 78% 0.00in /  0mm
01:24 43.4 °F /  6.3 °C 37.3 °F /  2.9 °C 30.03in /  1016.8hPa NW 4.0mph /  6.4km/h 8.0mph /  12.9km/h 79% 0.00in /  0mm
01:29 43.2 °F /  6.2 °C 37.1 °F /  2.8 °C 30.03in /  1016.8hPa WNW 6.0mph /  9.7km/h 8.0mph /  12.9km/h 79% 0.00in /  0mm
01:34 43.1 °F /  6.2 °C 37.0 °F /  2.8 °C 30.02in /  1016.5hPa West 7.0mph /  11.3km/h 9.0mph /  14.5km/h 79% 0.00in /  0mm
01:39 43.0 °F /  6.1 °C 36.6 °F /  2.6 °C 30.02in /  1016.5hPa West 5.0mph /  8km/h 8.0mph /  12.9km/h 78% 0.00in /  0mm
01:44 43.0 °F /  6.1 °C 36.6 °F /  2.6 °C 30.02in /  1016.5hPa WNW 5.0mph /  8km/h 12.0mph /  19.3km/h 78% 0.00in /  0mm
01:49 42.9 °F /  6.1 °C 36.5 °F /  2.5 °C 30.02in /  1016.5hPa West 6.0mph /  9.7km/h 9.0mph /  14.5km/h 78% 0.00in /  0mm
01:54 42.8 °F /  6 °C 36.4 °F /  2.4 °C 30.02in /  1016.5hPa WNW 4.0mph /  6.4km/h 7.0mph /  11.3km/h 78% 0.00in /  0mm
01:59 42.7 °F /  5.9 °C 36.3 °F /  2.4 °C 30.02in /  1016.5hPa West 6.0mph /  9.7km/h 8.0mph /  12.9km/h 78% 0.00in /  0mm
02:04 42.4 °F /  5.8 °C 36.0 °F /  2.2 °C 30.02in /  1016.5hPa WNW 5.0mph /  8km/h 10.0mph /  16.1km/h 78% 0.00in /  0mm
02:09 42.0 °F /  5.6 °C 35.6 °F /  2 °C 30.02in /  1016.5hPa WNW 7.0mph /  11.3km/h 14.0mph /  22.5km/h 78% 0.00in /  0mm
02:14 41.8 °F /  5.4 °C 35.4 °F /  1.9 °C 30.02in /  1016.5hPa WNW 5.0mph /  8km/h 14.0mph /  22.5km/h 78% 0.00in /  0mm
02:19 41.5 °F /  5.3 °C 35.2 °F /  1.8 °C 30.02in /  1016.5hPa WNW 6.0mph /  9.7km/h 14.0mph /  22.5km/h 78% 0.00in /  0mm
02:24 41.3 °F /  5.2 °C 35.3 °F /  1.8 °C 30.02in /  1016.5hPa WNW 5.0mph /  8km/h 11.0mph /  17.7km/h 79% 0.00in /  0mm
02:29 40.9 °F /  4.9 °C 34.9 °F /  1.6 °C 30.01in /  1016.1hPa West 4.0mph /  6.4km/h 6.0mph /  9.7km/h 79% 0.00in /  0mm
02:34 40.8 °F /  4.9 °C 35.1 °F /  1.7 °C 30.01in /  1016.1hPa WNW 3.0mph /  4.8km/h 7.0mph /  11.3km/h 80% 0.00in /  0mm
02:39 40.7 °F /  4.8 °C 35.0 °F /  1.7 °C 30.01in /  1016.1hPa WNW 3.0mph /  4.8km/h 7.0mph /  11.3km/h 80% 0.00in /  0mm
02:44 40.6 °F /  4.8 °C 34.9 °F /  1.6 °C 30.01in /  1016.1hPa WNW 3.0mph /  4.8km/h 7.0mph /  11.3km/h 80% 0.00in /  0mm
02:49 40.5 °F /  4.7 °C 34.8 °F /  1.6 °C 30.00in /  1015.8hPa WNW 3.0mph /  4.8km/h 6.0mph /  9.7km/h 80% 0.00in /  0mm
02:54 40.3 °F /  4.6 °C 34.6 °F /  1.4 °C 30.01in /  1016.1hPa West 3.0mph /  4.8km/h 6.0mph /  9.7km/h 80% 0.00in /  0mm
02:59 40.4 °F /  4.7 °C 35.0 °F /  1.7 °C 30.00in /  1015.8hPa West 1.0mph /  1.6km/h 3.0mph /  4.8km/h 81% 0.00in /  0mm
03:04 40.6 °F /  4.8 °C 35.2 °F /  1.8 °C 30.00in /  1015.8hPa West 2.0mph /  3.2km/h 4.0mph /  6.4km/h 81% 0.00in /  0mm
03:09 40.9 °F /  4.9 °C 35.2 °F /  1.8 °C 30.01in /  1016.1hPa West 2.0mph /  3.2km/h 7.0mph /  11.3km/h 80% 0.00in /  0mm
03:14 41.3 °F /  5.2 °C 35.6 °F /  2 °C 30.01in /  1016.1hPa West 3.0mph /  4.8km/h 7.0mph /  11.3km/h 80% 0.00in /  0mm
03:19 41.5 °F /  5.3 °C 35.8 °F /  2.1 °C 30.01in /  1016.1hPa West 2.0mph /  3.2km/h 7.0mph /  11.3km/h 80% 0.00in /  0mm
03:24 41.8 °F /  5.4 °C 35.8 °F /  2.1 °C 30.00in /  1015.8hPa West 3.0mph /  4.8km/h 7.0mph /  11.3km/h 79% 0.00in /  0mm
03:29 41.9 °F /  5.5 °C 35.9 °F /  2.2 °C 30.01in /  1016.1hPa WNW 2.0mph /  3.2km/h 7.0mph /  11.3km/h 79% 0.00in /  0mm
03:34 41.8 °F /  5.4 °C 35.8 °F /  2.1 °C 30.00in /  1015.8hPa West 3.0mph /  4.8km/h 6.0mph /  9.7km/h 79% 0.00in /  0mm
03:44 41.9 °F /  5.5 °C 35.9 °F /  2.2 °C 30.01in /  1016.1hPa West 3.0mph /  4.8km/h 7.0mph /  11.3km/h 79% 0.00in /  0mm
03:49 41.9 °F /  5.5 °C 35.9 °F /  2.2 °C 30.00in /  1015.8hPa West 4.0mph /  6.4km/h 8.0mph /  12.9km/h 79% 0.00in /  0mm
03:54 41.9 °F /  5.5 °C 35.9 °F /  2.2 °C 30.01in /  1016.1hPa West 4.0mph /  6.4km/h 8.0mph /  12.9km/h 79% 0.00in /  0mm
03:59 41.9 °F /  5.5 °C 36.2 °F /  2.3 °C 30.01in /  1016.1hPa WNW 4.0mph /  6.4km/h 7.0mph /  11.3km/h 80% 0.00in /  0mm
04:04 41.8 °F /  5.4 °C 36.1 °F /  2.3 °C 30.00in /  1015.8hPa West 4.0mph /  6.4km/h 8.0mph /  12.9km/h 80% 0.00in /  0mm
04:09 41.8 °F /  5.4 °C 36.1 °F /  2.3 °C 30.00in /  1015.8hPa West 6.0mph /  9.7km/h 9.0mph /  14.5km/h 80% 0.00in /  0mm
04:14 41.8 °F /  5.4 °C 36.1 °F /  2.3 °C 30.01in /  1016.1hPa WNW 3.0mph /  4.8km/h 7.0mph /  11.3km/h 80% 0.00in /  0mm
04:19 41.8 °F /  5.4 °C 36.1 °F /  2.3 °C 30.01in /  1016.1hPa West 3.0mph /  4.8km/h 8.0mph /  12.9km/h 80% 0.00in /  0mm
04:24 41.8 °F /  5.4 °C 36.1 °F /  2.3 °C 30.01in /  1016.1hPa West 2.0mph /  3.2km/h 8.0mph /  12.9km/h 80% 0.00in /  0mm
04:29 41.8 °F /  5.4 °C 36.1 °F /  2.3 °C 30.01in /  1016.1hPa WNW 2.0mph /  3.2km/h 5.0mph /  8km/h 80% 0.00in /  0mm
04:34 41.8 °F /  5.4 °C 36.1 °F /  2.3 °C 30.01in /  1016.1hPa West 5.0mph /  8km/h 7.0mph /  11.3km/h 80% 0.00in /  0mm
04:39 41.8 °F /  5.4 °C 36.1 °F /  2.3 °C 30.01in /  1016.1hPa WNW 4.0mph /  6.4km/h 7.0mph /  11.3km/h 80% 0.00in /  0mm
04:44 41.8 °F /  5.4 °C 36.4 °F /  2.4 °C 30.01in /  1016.1hPa WNW 3.0mph /  4.8km/h 7.0mph /  11.3km/h 81% 0.00in /  0mm
04:49 41.8 °F /  5.4 °C 36.1 °F /  2.3 °C 30.01in /  1016.1hPa WNW 3.0mph /  4.8km/h 9.0mph /  14.5km/h 80% 0.00in /  0mm
04:54 41.8 °F /  5.4 °C 36.4 °F /  2.4 °C 30.01in /  1016.1hPa WNW 4.0mph /  6.4km/h 9.0mph /  14.5km/h 81% 0.00in /  0mm
04:59 41.8 °F /  5.4 °C 36.4 °F /  2.4 °C 30.01in /  1016.1hPa WNW 1.0mph /  1.6km/h 5.0mph /  8km/h 81% 0.00in /  0mm
05:04 41.8 °F /  5.4 °C 36.4 °F /  2.4 °C 30.01in /  1016.1hPa WNW 1.0mph /  1.6km/h 6.0mph /  9.7km/h 81% 0.00in /  0mm
05:09 41.8 °F /  5.4 °C 36.4 °F /  2.4 °C 30.02in /  1016.5hPa West 3.0mph /  4.8km/h 6.0mph /  9.7km/h 81% 0.00in /  0mm
05:14 41.8 °F /  5.4 °C 36.4 °F /  2.4 °C 30.02in /  1016.5hPa West 3.0mph /  4.8km/h 5.0mph /  8km/h 81% 0.00in /  0mm
05:19 41.8 °F /  5.4 °C 36.4 °F /  2.4 °C 30.02in /  1016.5hPa WNW 3.0mph /  4.8km/h 6.0mph /  9.7km/h 81% 0.00in /  0mm
05:24 41.8 °F /  5.4 °C 36.4 °F /  2.4 °C 30.02in /  1016.5hPa WNW 3.0mph /  4.8km/h 8.0mph /  12.9km/h 81% 0.00in /  0mm
05:29 41.7 °F /  5.4 °C 36.3 °F /  2.4 °C 30.02in /  1016.5hPa West 1.0mph /  1.6km/h 7.0mph /  11.3km/h 81% 0.00in /  0mm
05:34 41.8 °F /  5.4 °C 36.4 °F /  2.4 °C 30.02in /  1016.5hPa West 2.0mph /  3.2km/h 8.0mph /  12.9km/h 81% 0.00in /  0mm
05:39 41.7 °F /  5.4 °C 36.3 °F /  2.4 °C 30.02in /  1016.5hPa WNW 3.0mph /  4.8km/h 6.0mph /  9.7km/h 81% 0.00in /  0mm
05:44 41.7 °F /  5.4 °C 36.3 °F /  2.4 °C 30.02in /  1016.5hPa West 3.0mph /  4.8km/h 5.0mph /  8km/h 81% 0.00in /  0mm
05:49 41.6 °F /  5.3 °C 36.2 °F /  2.3 °C 30.02in /  1016.5hPa WNW 3.0mph /  4.8km/h 6.0mph /  9.7km/h 81% 0.00in /  0mm
05:54 41.5 °F /  5.3 °C 36.1 °F /  2.3 °C 30.02in /  1016.5hPa WNW 3.0mph /  4.8km/h 6.0mph /  9.7km/h 81% 0.00in /  0mm
05:59 41.3 °F /  5.2 °C 35.9 °F /  2.2 °C 30.02in /  1016.5hPa WNW 3.0mph /  4.8km/h 8.0mph /  12.9km/h 81% 0.00in /  0mm
06:04 41.2 °F /  5.1 °C 36.1 °F /  2.3 °C 30.02in /  1016.5hPa NNW 4.0mph /  6.4km/h 7.0mph /  11.3km/h 82% 0.00in /  0mm
06:09 41.3 °F /  5.2 °C 36.2 °F /  2.3 °C 30.02in /  1016.5hPa WNW 3.0mph /  4.8km/h 7.0mph /  11.3km/h 82% 0.00in /  0mm
06:14 41.2 °F /  5.1 °C 36.1 °F /  2.3 °C 30.02in /  1016.5hPa WNW 3.0mph /  4.8km/h 7.0mph /  11.3km/h 82% 0.00in /  0mm
06:19 40.9 °F /  4.9 °C 35.8 °F /  2.1 °C 30.02in /  1016.5hPa West 3.0mph /  4.8km/h 7.0mph /  11.3km/h 82% 0.00in /  0mm
06:24 40.6 °F /  4.8 °C 35.5 °F /  1.9 °C 30.02in /  1016.5hPa WNW 3.0mph /  4.8km/h 7.0mph /  11.3km/h 82% 0.00in /  0mm
06:29 40.4 °F /  4.7 °C 35.6 °F /  2 °C 30.02in /  1016.5hPa WNW 3.0mph /  4.8km/h 5.0mph /  8km/h 83% 0.00in /  0mm
06:34 40.2 °F /  4.6 °C 35.4 °F /  1.9 °C 30.03in /  1016.8hPa West 2.0mph /  3.2km/h 5.0mph /  8km/h 83% 0.00in /  0mm
06:39 40.1 °F /  4.5 °C 35.4 °F /  1.9 °C 30.03in /  1016.8hPa WNW 2.0mph /  3.2km/h 5.0mph /  8km/h 83% 0.00in /  0mm
06:44 40.0 °F /  4.4 °C 35.3 °F /  1.8 °C 30.03in /  1016.8hPa WNW 1.0mph /  1.6km/h 4.0mph /  6.4km/h 83% 0.00in /  0mm
06:49 40.0 °F /  4.4 °C 35.6 °F /  2 °C 30.03in /  1016.8hPa WNW 1.0mph /  1.6km/h 2.0mph /  3.2km/h 84% 0.00in /  0mm
06:54 40.0 °F /  4.4 °C 35.6 °F /  2 °C 30.04in /  1017.2hPa WNW 2.0mph /  3.2km/h 3.0mph /  4.8km/h 84% 0.00in /  0mm
06:59 40.1 °F /  4.5 °C 35.7 °F /  2.1 °C 30.04in /  1017.2hPa West 1.0mph /  1.6km/h 3.0mph /  4.8km/h 84% 0.00in /  0mm
07:04 40.4 °F /  4.7 °C 35.9 °F /  2.2 °C 30.03in /  1016.8hPa West 1.0mph /  1.6km/h 5.0mph /  8km/h 84% 0.00in /  0mm
07:09 40.9 °F /  4.9 °C 36.4 °F /  2.4 °C 30.03in /  1016.8hPa West 2.0mph /  3.2km/h 5.0mph /  8km/h 84% 0.00in /  0mm
07:14 41.1 °F /  5.1 °C 36.6 °F /  2.6 °C 30.03in /  1016.8hPa WNW 2.0mph /  3.2km/h 5.0mph /  8km/h 84% 0.00in /  0mm
07:19 41.3 °F /  5.2 °C 36.8 °F /  2.7 °C 30.04in /  1017.2hPa WNW 2.0mph /  3.2km/h 5.0mph /  8km/h 84% 0.00in /  0mm
07:24 41.4 °F /  5.2 °C 36.6 °F /  2.6 °C 30.04in /  1017.2hPa WNW 3.0mph /  4.8km/h 6.0mph /  9.7km/h 83% 0.00in /  0mm
07:29 41.5 °F /  5.3 °C 36.7 °F /  2.6 °C 30.04in /  1017.2hPa WNW 3.0mph /  4.8km/h 6.0mph /  9.7km/h 83% 0.00in /  0mm
07:34 41.6 °F /  5.3 °C 36.8 °F /  2.7 °C 30.04in /  1017.2hPa WNW 5.0mph /  8km/h 7.0mph /  11.3km/h 83% 0.00in /  0mm
07:39 41.7 °F /  5.4 °C 36.9 °F /  2.7 °C 30.04in /  1017.2hPa Calm   6.0mph /  9.7km/h 83% 0.00in /  0mm
07:44 41.7 °F /  5.4 °C 36.6 °F /  2.6 °C 30.04in /  1017.2hPa NW 8.0mph /  12.9km/h 9.0mph /  14.5km/h 82% 0.00in /  0mm
07:49 41.5 °F /  5.3 °C 35.8 °F /  2.1 °C 30.04in /  1017.2hPa WNW 6.0mph /  9.7km/h 13.0mph /  20.9km/h 80% 0.00in /  0mm
07:54 41.5 °F /  5.3 °C 35.5 °F /  1.9 °C 30.05in /  1017.5hPa WNW 4.0mph /  6.4km/h 12.0mph /  19.3km/h 79% 0.00in /  0mm
07:59 41.4 °F /  5.2 °C 35.1 °F /  1.7 °C 30.06in /  1017.8hPa NNW 4.0mph /  6.4km/h 10.0mph /  16.1km/h 78% 0.00in /  0mm
08:04 41.4 °F /  5.2 °C 35.1 °F /  1.7 °C 30.06in /  1017.8hPa WNW 6.0mph /  9.7km/h 8.0mph /  12.9km/h 78% 0.00in /  0mm
08:09 41.7 °F /  5.4 °C 35.3 °F /  1.8 °C 30.06in /  1017.8hPa NW 5.0mph /  8km/h 10.0mph /  16.1km/h 78% 0.00in /  0mm
08:14 41.8 °F /  5.4 °C 35.1 °F /  1.7 °C 30.06in /  1017.8hPa NW 4.0mph /  6.4km/h 10.0mph /  16.1km/h 77% 0.00in /  0mm
08:19 41.9 °F /  5.5 °C 35.2 °F /  1.8 °C 30.07in /  1018.2hPa NW 4.0mph /  6.4km/h 9.0mph /  14.5km/h 77% 0.00in /  0mm
08:24 42.2 °F /  5.7 °C 35.2 °F /  1.8 °C 30.07in /  1018.2hPa NW 4.0mph /  6.4km/h 9.0mph /  14.5km/h 76% 0.00in /  0mm
08:29 42.3 °F /  5.7 °C 35.6 °F /  2 °C 30.07in /  1018.2hPa WNW 4.0mph /  6.4km/h 8.0mph /  12.9km/h 77% 0.00in /  0mm
08:34 42.4 °F /  5.8 °C 35.4 °F /  1.9 °C 30.07in /  1018.2hPa WNW 1.0mph /  1.6km/h 7.0mph /  11.3km/h 76% 0.00in /  0mm
08:39 42.3 °F /  5.7 °C 34.9 °F /  1.6 °C 30.07in /  1018.2hPa WNW 4.0mph /  6.4km/h 10.0mph /  16.1km/h 75% 0.00in /  0mm
08:44 42.3 °F /  5.7 °C 34.9 °F /  1.6 °C 30.07in /  1018.2hPa WNW 4.0mph /  6.4km/h 10.0mph /  16.1km/h 75% 0.00in /  0mm
08:49 42.4 °F /  5.8 °C 35.0 °F /  1.7 °C 30.07in /  1018.2hPa NW 6.0mph /  9.7km/h 8.0mph /  12.9km/h 75% 0.00in /  0mm
08:54 42.5 °F /  5.8 °C 35.5 °F /  1.9 °C 30.07in /  1018.2hPa West 6.0mph /  9.7km/h 6.0mph /  9.7km/h 76% 0.00in /  0mm
08:59 42.4 °F /  5.8 °C 35.4 °F /  1.9 °C 30.07in /  1018.2hPa NNW 2.0mph /  3.2km/h 7.0mph /  11.3km/h 76% 0.00in /  0mm
09:04 42.3 °F /  5.7 °C 35.3 °F /  1.8 °C 30.07in /  1018.2hPa NW 4.0mph /  6.4km/h 9.0mph /  14.5km/h 76% 0.00in /  0mm
09:09 42.2 °F /  5.7 °C 34.8 °F /  1.6 °C 30.07in /  1018.2hPa NNW 4.0mph /  6.4km/h 9.0mph /  14.5km/h 75% 0.00in /  0mm
09:14 42.4 °F /  5.8 °C 35.0 °F /  1.7 °C 30.07in /  1018.2hPa NW 3.0mph /  4.8km/h 8.0mph /  12.9km/h 75% 0.00in /  0mm
09:19 42.5 °F /  5.8 °C 35.1 °F /  1.7 °C 30.08in /  1018.5hPa NW 4.0mph /  6.4km/h 8.0mph /  12.9km/h 75% 0.00in /  0mm
09:24 42.5 °F /  5.8 °C 35.1 °F /  1.7 °C 30.08in /  1018.5hPa NW 6.0mph /  9.7km/h 8.0mph /  12.9km/h 75% 0.00in /  0mm
09:29 42.3 °F /  5.7 °C 34.9 °F /  1.6 °C 30.08in /  1018.5hPa NW 3.0mph /  4.8km/h 8.0mph /  12.9km/h 75% 0.00in /  0mm
09:34 42.3 °F /  5.7 °C 34.9 °F /  1.6 °C 30.08in /  1018.5hPa NNW 4.0mph /  6.4km/h 8.0mph /  12.9km/h 75% 0.00in /  0mm
09:39 42.5 °F /  5.8 °C 35.1 °F /  1.7 °C 30.09in /  1018.8hPa NNW 3.0mph /  4.8km/h 6.0mph /  9.7km/h 75% 0.00in /  0mm
09:44 42.5 °F /  5.8 °C 35.1 °F /  1.7 °C 30.09in /  1018.8hPa WNW 4.0mph /  6.4km/h 7.0mph /  11.3km/h 75% 0.00in /  0mm
09:49 42.7 °F /  5.9 °C 35.3 °F /  1.8 °C 30.09in /  1018.8hPa NW 3.0mph /  4.8km/h 6.0mph /  9.7km/h 75% 0.00in /  0mm
09:54 42.6 °F /  5.9 °C 34.9 °F /  1.6 °C 30.09in /  1018.8hPa NNW 4.0mph /  6.4km/h 9.0mph /  14.5km/h 74% 0.00in /  0mm
09:59 42.5 °F /  5.8 °C 34.8 °F /  1.6 °C 30.09in /  1018.8hPa NW 4.0mph /  6.4km/h 8.0mph /  12.9km/h 74% 0.00in /  0mm
10:04 42.7 °F /  5.9 °C 35.3 °F /  1.8 °C 30.09in /  1018.8hPa NNW 4.0mph /  6.4km/h 8.0mph /  12.9km/h 75% 0.00in /  0mm
10:09 42.9 °F /  6.1 °C 35.5 °F /  1.9 °C 30.09in /  1018.8hPa NW 3.0mph /  4.8km/h 7.0mph /  11.3km/h 75% 0.00in /  0mm
10:14 43.0 °F /  6.1 °C 35.6 °F /  2 °C 30.09in /  1018.8hPa NW 3.0mph /  4.8km/h 7.0mph /  11.3km/h 75% 0.00in /  0mm
10:19 43.5 °F /  6.4 °C 35.8 °F /  2.1 °C 30.09in /  1018.8hPa NW 3.0mph /  4.8km/h 6.0mph /  9.7km/h 74% 0.00in /  0mm
10:24 43.7 °F /  6.5 °C 36.0 °F /  2.2 °C 30.09in /  1018.8hPa West 6.0mph /  9.7km/h 8.0mph /  12.9km/h 74% 0.00in /  0mm
10:29 43.5 °F /  6.4 °C 35.8 °F /  2.1 °C 30.08in /  1018.5hPa WNW 3.0mph /  4.8km/h 8.0mph /  12.9km/h 74% 0.00in /  0mm
10:34 43.8 °F /  6.6 °C 36.4 °F /  2.4 °C 30.09in /  1018.8hPa NW 4.0mph /  6.4km/h 9.0mph /  14.5km/h 75% 0.00in /  0mm
10:39 43.8 °F /  6.6 °C 35.7 °F /  2.1 °C 30.09in /  1018.8hPa NW 4.0mph /  6.4km/h 9.0mph /  14.5km/h 73% 0.00in /  0mm
10:44 43.8 °F /  6.6 °C 36.0 °F /  2.2 °C 30.09in /  1018.8hPa NW 2.0mph /  3.2km/h 9.0mph /  14.5km/h 74% 0.00in /  0mm
10:49 44.2 °F /  6.8 °C 36.4 °F /  2.4 °C 30.09in /  1018.8hPa NW 3.0mph /  4.8km/h 8.0mph /  12.9km/h 74% 0.00in /  0mm
10:54 44.5 °F /  6.9 °C 36.0 °F /  2.2 °C 30.10in /  1019.2hPa NW 3.0mph /  4.8km/h 10.0mph /  16.1km/h 72% 0.00in /  0mm
10:59 44.3 °F /  6.8 °C 35.8 °F /  2.1 °C 30.10in /  1019.2hPa WNW 5.0mph /  8km/h 8.0mph /  12.9km/h 72% 0.00in /  0mm
11:04 44.1 °F /  6.7 °C 36.0 °F /  2.2 °C 30.10in /  1019.2hPa NW 4.0mph /  6.4km/h 9.0mph /  14.5km/h 73% 0.00in /  0mm
11:09 44.3 °F /  6.8 °C 36.2 °F /  2.3 °C 30.10in /  1019.2hPa North 3.0mph /  4.8km/h 7.0mph /  11.3km/h 73% 0.00in /  0mm
11:14 44.5 °F /  6.9 °C 36.4 °F /  2.4 °C 30.10in /  1019.2hPa NNW 4.0mph /  6.4km/h 7.0mph /  11.3km/h 73% 0.00in /  0mm
11:19 44.0 °F /  6.7 °C 35.9 °F /  2.2 °C 30.10in /  1019.2hPa NNW 1.0mph /  1.6km/h 10.0mph /  16.1km/h 73% 0.00in /  0mm
11:24 44.2 °F /  6.8 °C 36.4 °F /  2.4 °C 30.09in /  1018.8hPa WNW 4.0mph /  6.4km/h 8.0mph /  12.9km/h 74% 0.00in /  0mm
11:29 44.2 °F /  6.8 °C 36.1 °F /  2.3 °C 30.09in /  1018.8hPa NW 5.0mph /  8km/h 7.0mph /  11.3km/h 73% 0.00in /  0mm
11:34 44.2 °F /  6.8 °C 36.1 °F /  2.3 °C 30.09in /  1018.8hPa NW 3.0mph /  4.8km/h 8.0mph /  12.9km/h 73% 0.00in /  0mm
11:39 44.2 °F /  6.8 °C 36.4 °F /  2.4 °C 30.09in /  1018.8hPa NW 4.0mph /  6.4km/h 8.0mph /  12.9km/h 74% 0.00in /  0mm
11:44 44.4 °F /  6.9 °C 36.3 °F /  2.4 °C 30.09in /  1018.8hPa NNW 4.0mph /  6.4km/h 8.0mph /  12.9km/h 73% 0.00in /  0mm
11:49 44.5 °F /  6.9 °C 36.4 °F /  2.4 °C 30.09in /  1018.8hPa NW 4.0mph /  6.4km/h 8.0mph /  12.9km/h 73% 0.00in /  0mm
11:54 44.5 °F /  6.9 °C 36.0 °F /  2.2 °C 30.09in /  1018.8hPa NNW 3.0mph /  4.8km/h 8.0mph /  12.9km/h 72% 0.00in /  0mm
11:59 44.3 °F /  6.8 °C 35.5 °F /  1.9 °C 30.09in /  1018.8hPa NNW 5.0mph /  8km/h 9.0mph /  14.5km/h 71% 0.00in /  0mm
12:04 45.0 °F /  7.2 °C 36.2 °F /  2.3 °C 30.09in /  1018.8hPa NNW 4.0mph /  6.4km/h 9.0mph /  14.5km/h 71% 0.00in /  0mm
12:09 45.2 °F /  7.3 °C 36.4 °F /  2.4 °C 30.09in /  1018.8hPa NNW 5.0mph /  8km/h 8.0mph /  12.9km/h 71% 0.00in /  0mm
12:14 45.5 °F /  7.5 °C 36.6 °F /  2.6 °C 30.09in /  1018.8hPa NNW 6.0mph /  9.7km/h 7.0mph /  11.3km/h 71% 0.00in /  0mm
12:19 45.7 °F /  7.6 °C 36.8 °F /  2.7 °C 30.09in /  1018.8hPa NW 2.0mph /  3.2km/h 7.0mph /  11.3km/h 71% 0.00in /  0mm
12:24 45.4 °F /  7.4 °C 35.8 °F /  2.1 °C 30.09in /  1018.8hPa North 2.0mph /  3.2km/h 8.0mph /  12.9km/h 69% 0.00in /  0mm
12:29 46.0 °F /  7.8 °C 36.8 °F /  2.7 °C 30.09in /  1018.8hPa NW 2.0mph /  3.2km/h 7.0mph /  11.3km/h 70% 0.00in /  0mm
12:34 46.1 °F /  7.8 °C 36.9 °F /  2.7 °C 30.09in /  1018.8hPa NW 3.0mph /  4.8km/h 7.0mph /  11.3km/h 70% 0.00in /  0mm
12:39 46.4 °F /  8 °C 36.8 °F /  2.7 °C 30.09in /  1018.8hPa NNW 3.0mph /  4.8km/h 7.0mph /  11.3km/h 69% 0.00in /  0mm
12:44 46.3 °F /  7.9 °C 36.3 °F /  2.4 °C 30.09in /  1018.8hPa NNW 4.0mph /  6.4km/h 9.0mph /  14.5km/h 68% 0.00in /  0mm
12:49 46.9 °F /  8.3 °C 37.6 °F /  3.1 °C 30.09in /  1018.8hPa NNW 4.0mph /  6.4km/h 9.0mph /  14.5km/h 70% 0.00in /  0mm
12:54 46.3 °F /  7.9 °C 35.9 °F /  2.2 °C 30.09in /  1018.8hPa NNW 3.0mph /  4.8km/h 8.0mph /  12.9km/h 67% 0.00in /  0mm
12:59 46.7 °F /  8.2 °C 36.7 °F /  2.6 °C 30.09in /  1018.8hPa NW 1.0mph /  1.6km/h 7.0mph /  11.3km/h 68% 0.00in /  0mm
13:04 46.4 °F /  8 °C 35.7 °F /  2.1 °C 30.09in /  1018.8hPa NNW 4.0mph /  6.4km/h 10.0mph /  16.1km/h 66% 0.00in /  0mm
13:09 46.3 °F /  7.9 °C 35.9 °F /  2.2 °C 30.09in /  1018.8hPa North 3.0mph /  4.8km/h 10.0mph /  16.1km/h 67% 0.00in /  0mm
13:14 46.5 °F /  8.1 °C 36.5 °F /  2.5 °C 30.08in /  1018.5hPa NNW 6.0mph /  9.7km/h 7.0mph /  11.3km/h 68% 0.00in /  0mm
13:19 46.5 °F /  8.1 °C 36.1 °F /  2.3 °C 30.08in /  1018.5hPa WNW 3.0mph /  4.8km/h 10.0mph /  16.1km/h 67% 0.00in /  0mm
13:24 47.1 °F /  8.4 °C 36.3 °F /  2.4 °C 30.09in /  1018.8hPa NNW 3.0mph /  4.8km/h 8.0mph /  12.9km/h 66% 0.00in /  0mm
13:29 47.3 °F /  8.5 °C 36.9 °F /  2.7 °C 30.09in /  1018.8hPa WNW 7.0mph /  11.3km/h 8.0mph /  12.9km/h 67% 0.00in /  0mm
13:34 47.1 °F /  8.4 °C 35.9 °F /  2.2 °C 30.09in /  1018.8hPa NNW 4.0mph /  6.4km/h 8.0mph /  12.9km/h 65% 0.00in /  0mm
13:39 47.0 °F /  8.3 °C 35.8 °F /  2.1 °C 30.09in /  1018.8hPa NNW 4.0mph /  6.4km/h 11.0mph /  17.7km/h 65% 0.00in /  0mm
13:44 47.4 °F /  8.6 °C 37.4 °F /  3 °C 30.09in /  1018.8hPa NW 4.0mph /  6.4km/h 9.0mph /  14.5km/h 68% 0.00in /  0mm
13:49 47.9 °F /  8.8 °C 36.7 °F /  2.6 °C 30.09in /  1018.8hPa WNW 4.0mph /  6.4km/h 7.0mph /  11.3km/h 65% 0.00in /  0mm
13:54 47.8 °F /  8.8 °C 36.2 °F /  2.3 °C 30.09in /  1018.8hPa NNW 7.0mph /  11.3km/h 12.0mph /  19.3km/h 64% 0.00in /  0mm
13:59 47.6 °F /  8.7 °C 36.8 °F /  2.7 °C 30.09in /  1018.8hPa NNW 5.0mph /  8km/h 12.0mph /  19.3km/h 66% 0.00in /  0mm
14:04 48.4 °F /  9.1 °C 37.2 °F /  2.9 °C 30.09in /  1018.8hPa NNW 4.0mph /  6.4km/h 9.0mph /  14.5km/h 65% 0.00in /  0mm
14:09 48.7 °F /  9.3 °C 37.5 °F /  3.1 °C 30.10in /  1019.2hPa NNW 4.0mph /  6.4km/h 8.0mph /  12.9km/h 65% 0.00in /  0mm
14:14 49.1 °F /  9.5 °C 37.4 °F /  3 °C 30.10in /  1019.2hPa NW 4.0mph /  6.4km/h 9.0mph /  14.5km/h 64% 0.00in /  0mm
14:19 49.6 °F /  9.8 °C 37.1 °F /  2.8 °C 30.10in /  1019.2hPa NW 4.0mph /  6.4km/h 9.0mph /  14.5km/h 62% 0.00in /  0mm
14:24 49.7 °F /  9.8 °C 38.4 °F /  3.6 °C 30.10in /  1019.2hPa North 8.0mph /  12.9km/h 8.0mph /  12.9km/h 65% 0.00in /  0mm
14:29 50.2 °F /  10.1 °C 37.3 °F /  2.9 °C 30.10in /  1019.2hPa NNW 4.0mph /  6.4km/h 8.0mph /  12.9km/h 61% 0.00in /  0mm
14:34 49.2 °F /  9.6 °C 37.9 °F /  3.3 °C 30.10in /  1019.2hPa North 4.0mph /  6.4km/h 8.0mph /  12.9km/h 65% 0.00in /  0mm
14:39 49.3 °F /  9.6 °C 37.2 °F /  2.9 °C 30.09in /  1018.8hPa NNW 3.0mph /  4.8km/h 7.0mph /  11.3km/h 63% 0.00in /  0mm
14:44 51.0 °F /  10.6 °C 39.2 °F /  4 °C 30.09in /  1018.8hPa NW 4.0mph /  6.4km/h 8.0mph /  12.9km/h 64% 0.00in /  0mm
14:49 50.5 °F /  10.3 °C 37.5 °F /  3.1 °C 30.09in /  1018.8hPa NNE 6.0mph /  9.7km/h 6.0mph /  9.7km/h 61% 0.00in /  0mm
14:54 49.9 °F /  9.9 °C 37.8 °F /  3.2 °C 30.09in /  1018.8hPa NNW 4.0mph /  6.4km/h 8.0mph /  12.9km/h 63% 0.00in /  0mm
14:59 50.8 °F /  10.4 °C 37.4 °F /  3 °C 30.09in /  1018.8hPa NNW 4.0mph /  6.4km/h 10.0mph /  16.1km/h 60% 0.00in /  0mm
15:04 49.7 °F /  9.8 °C 37.2 °F /  2.9 °C 30.09in /  1018.8hPa NNW 4.0mph /  6.4km/h 10.0mph /  16.1km/h 62% 0.00in /  0mm
15:09 49.0 °F /  9.4 °C 37.3 °F /  2.9 °C 30.09in /  1018.8hPa NNW 3.0mph /  4.8km/h 8.0mph /  12.9km/h 64% 0.00in /  0mm
15:14 51.4 °F /  10.8 °C 38.0 °F /  3.3 °C 30.09in /  1018.8hPa NNW 3.0mph /  4.8km/h 9.0mph /  14.5km/h 60% 0.00in /  0mm
15:19 52.5 °F /  11.4 °C 39.0 °F /  3.9 °C 30.09in /  1018.8hPa NW 4.0mph /  6.4km/h 7.0mph /  11.3km/h 60% 0.00in /  0mm
15:24 51.9 °F /  11.1 °C 38.0 °F /  3.3 °C 30.09in /  1018.8hPa NNW 4.0mph /  6.4km/h 8.0mph /  12.9km/h 59% 0.00in /  0mm
15:29 53.0 °F /  11.7 °C 40.3 °F /  4.6 °C 30.09in /  1018.8hPa NNW 4.0mph /  6.4km/h 9.0mph /  14.5km/h 62% 0.00in /  0mm
15:34 51.5 °F /  10.8 °C 37.2 °F /  2.9 °C 30.09in /  1018.8hPa ENE 3.0mph /  4.8km/h 8.0mph /  12.9km/h 58% 0.00in /  0mm
15:39 51.8 °F /  11 °C 38.3 °F /  3.5 °C 30.09in /  1018.8hPa Calm   7.0mph /  11.3km/h 60% 0.00in /  0mm
15:44 52.5 °F /  11.4 °C 37.7 °F /  3.2 °C 30.10in /  1019.2hPa NW 8.0mph /  12.9km/h 13.0mph /  20.9km/h 57% 0.00in /  0mm
15:49 52.0 °F /  11.1 °C 38.5 °F /  3.6 °C 30.09in /  1018.8hPa West 5.0mph /  8km/h 8.0mph /  12.9km/h 60% 0.00in /  0mm
15:54 52.8 °F /  11.6 °C 38.4 °F /  3.6 °C 30.10in /  1019.2hPa NNW 5.0mph /  8km/h 10.0mph /  16.1km/h 58% 0.00in /  0mm
15:59 53.3 °F /  11.8 °C 38.9 °F /  3.8 °C 30.09in /  1018.8hPa NW 4.0mph /  6.4km/h 10.0mph /  16.1km/h 58% 0.00in /  0mm
16:04 53.2 °F /  11.8 °C 37.4 °F /  3 °C 30.09in /  1018.8hPa NW 4.0mph /  6.4km/h 9.0mph /  14.5km/h 55% 0.00in /  0mm
16:09 53.2 °F /  11.8 °C 38.8 °F /  3.8 °C 30.09in /  1018.8hPa NNW 3.0mph /  4.8km/h 8.0mph /  12.9km/h 58% 0.00in /  0mm
16:14 53.4 °F /  11.9 °C 39.4 °F /  4.1 °C 30.09in /  1018.8hPa North 4.0mph /  6.4km/h 9.0mph /  14.5km/h 59% 0.00in /  0mm
16:19 53.3 °F /  11.8 °C 37.1 °F /  2.8 °C 30.09in /  1018.8hPa NNW 2.0mph /  3.2km/h 11.0mph /  17.7km/h 54% 0.00in /  0mm
16:24 52.4 °F /  11.3 °C 36.7 °F /  2.6 °C 30.09in /  1018.8hPa NW 4.0mph /  6.4km/h 10.0mph /  16.1km/h 55% 0.00in /  0mm
16:29 53.0 °F /  11.7 °C 37.7 °F /  3.2 °C 30.09in /  1018.8hPa NNW 5.0mph /  8km/h 12.0mph /  19.3km/h 56% 0.00in /  0mm
16:34 53.1 °F /  11.7 °C 36.4 °F /  2.4 °C 30.09in /  1018.8hPa North 4.0mph /  6.4km/h 12.0mph /  19.3km/h 53% 0.00in /  0mm
16:39 53.5 °F /  11.9 °C 37.3 °F /  2.9 °C 30.09in /  1018.8hPa NNW 3.0mph /  4.8km/h 8.0mph /  12.9km/h 54% 0.00in /  0mm
16:44 54.0 °F /  12.2 °C 38.2 °F /  3.4 °C 30.09in /  1018.8hPa NW 1.0mph /  1.6km/h 5.0mph /  8km/h 55% 0.00in /  0mm
16:49 53.0 °F /  11.7 °C 36.3 °F /  2.4 °C 30.09in /  1018.8hPa NNE 4.0mph /  6.4km/h 8.0mph /  12.9km/h 53% 0.00in /  0mm
16:54 53.2 °F /  11.8 °C 37.4 °F /  3 °C 30.08in /  1018.5hPa North 2.0mph /  3.2km/h 7.0mph /  11.3km/h 55% 0.00in /  0mm
16:59 53.4 °F /  11.9 °C 37.2 °F /  2.9 °C 30.09in /  1018.8hPa North 3.0mph /  4.8km/h 7.0mph /  11.3km/h 54% 0.00in /  0mm
17:04 53.7 °F /  12.1 °C 36.5 °F /  2.5 °C 30.08in /  1018.5hPa NNW 3.0mph /  4.8km/h 9.0mph /  14.5km/h 52% 0.00in /  0mm
17:09 54.2 °F /  12.3 °C 37.4 °F /  3 °C 30.08in /  1018.5hPa North 2.0mph /  3.2km/h 7.0mph /  11.3km/h 53% 0.00in /  0mm
17:14 54.0 °F /  12.2 °C 36.8 °F /  2.7 °C 30.08in /  1018.5hPa NNW 2.0mph /  3.2km/h 8.0mph /  12.9km/h 52% 0.00in /  0mm
17:19 53.5 °F /  11.9 °C 35.3 °F /  1.8 °C 30.09in /  1018.8hPa NNW 3.0mph /  4.8km/h 5.0mph /  8km/h 50% 0.00in /  0mm
17:24 53.7 °F /  12.1 °C 36.0 °F /  2.2 °C 30.09in /  1018.8hPa NNW 2.0mph /  3.2km/h 11.0mph /  17.7km/h 51% 0.00in /  0mm
17:29 53.2 °F /  11.8 °C 34.5 °F /  1.4 °C 30.09in /  1018.8hPa NW 4.0mph /  6.4km/h 11.0mph /  17.7km/h 49% 0.00in /  0mm
17:34 52.9 °F /  11.6 °C 33.7 °F /  0.9 °C 30.09in /  1018.8hPa NW 3.0mph /  4.8km/h 7.0mph /  11.3km/h 48% 0.00in /  0mm
17:39 52.5 °F /  11.4 °C 33.9 °F /  1.1 °C 30.09in /  1018.8hPa NNW 3.0mph /  4.8km/h 7.0mph /  11.3km/h 49% 0.00in /  0mm
17:44 52.7 °F /  11.5 °C 35.1 °F /  1.7 °C 30.09in /  1018.8hPa NNW 4.0mph /  6.4km/h 9.0mph /  14.5km/h 51% 0.00in /  0mm
17:49 53.0 °F /  11.7 °C 34.3 °F /  1.3 °C 30.09in /  1018.8hPa WNW 2.0mph /  3.2km/h 8.0mph /  12.9km/h 49% 0.00in /  0mm
17:54 53.3 °F /  11.8 °C 35.1 °F /  1.7 °C 30.09in /  1018.8hPa NNE 3.0mph /  4.8km/h 8.0mph /  12.9km/h 50% 0.00in /  0mm
17:59 53.7 °F /  12.1 °C 34.5 °F /  1.4 °C 30.09in /  1018.8hPa North 4.0mph /  6.4km/h 8.0mph /  12.9km/h 48% 0.00in /  0mm
18:04 53.7 °F /  12.1 °C 35.0 °F /  1.7 °C 30.08in /  1018.5hPa NNE 3.0mph /  4.8km/h 7.0mph /  11.3km/h 49% 0.00in /  0mm
18:09 53.5 °F /  11.9 °C 34.3 °F /  1.3 °C 30.08in /  1018.5hPa NNW 6.0mph /  9.7km/h 7.0mph /  11.3km/h 48% 0.00in /  0mm
18:14 53.6 °F /  12 °C 35.4 °F /  1.9 °C 30.08in /  1018.5hPa North 4.0mph /  6.4km/h 9.0mph /  14.5km/h 50% 0.00in /  0mm
18:19 53.4 °F /  11.9 °C 33.7 °F /  0.9 °C 30.08in /  1018.5hPa NNW 4.0mph /  6.4km/h 8.0mph /  12.9km/h 47% 0.00in /  0mm
18:24 53.5 °F /  11.9 °C 34.8 °F /  1.6 °C 30.08in /  1018.5hPa NNW 4.0mph /  6.4km/h 7.0mph /  11.3km/h 49% 0.00in /  0mm
18:29 53.7 °F /  12.1 °C 35.0 °F /  1.7 °C 30.08in /  1018.5hPa NNE 3.0mph /  4.8km/h 7.0mph /  11.3km/h 49% 0.00in /  0mm
18:34 53.5 °F /  11.9 °C 34.8 °F /  1.6 °C 30.08in /  1018.5hPa North 4.0mph /  6.4km/h 10.0mph /  16.1km/h 49% 0.00in /  0mm
18:39 53.2 °F /  11.8 °C 35.5 °F /  1.9 °C 30.08in /  1018.5hPa North 3.0mph /  4.8km/h 10.0mph /  16.1km/h 51% 0.00in /  0mm
18:44 53.1 °F /  11.7 °C 34.9 °F /  1.6 °C 30.08in /  1018.5hPa NNW 3.0mph /  4.8km/h 6.0mph /  9.7km/h 50% 0.00in /  0mm
18:49 51.7 °F /  10.9 °C 36.9 °F /  2.7 °C 30.08in /  1018.5hPa WNW 3.0mph /  4.8km/h 7.0mph /  11.3km/h 57% 0.00in /  0mm
18:54 50.4 °F /  10.2 °C 37.0 °F /  2.8 °C 30.08in /  1018.5hPa WSW 3.0mph /  4.8km/h 8.0mph /  12.9km/h 60% 0.00in /  0mm
18:59 49.9 °F /  9.9 °C 37.0 °F /  2.8 °C 30.08in /  1018.5hPa WSW 3.0mph /  4.8km/h 8.0mph /  12.9km/h 61% 0.00in /  0mm
19:04 49.6 °F /  9.8 °C 37.1 °F /  2.8 °C 30.08in /  1018.5hPa SW 6.0mph /  9.7km/h 8.0mph /  12.9km/h 62% 0.00in /  0mm
19:09 49.0 °F /  9.4 °C 36.5 °F /  2.5 °C 30.08in /  1018.5hPa WSW 3.0mph /  4.8km/h 8.0mph /  12.9km/h 62% 0.00in /  0mm
19:14 48.7 °F /  9.3 °C 36.7 °F /  2.6 °C 30.08in /  1018.5hPa West 2.0mph /  3.2km/h 4.0mph /  6.4km/h 63% 0.00in /  0mm
19:19 48.3 °F /  9.1 °C 36.3 °F /  2.4 °C 30.08in /  1018.5hPa SW 5.0mph /  8km/h 6.0mph /  9.7km/h 63% 0.00in /  0mm
19:24 47.9 °F /  8.8 °C 36.3 °F /  2.4 °C 30.09in /  1018.8hPa WSW 4.0mph /  6.4km/h 7.0mph /  11.3km/h 64% 0.00in /  0mm
19:29 47.5 °F /  8.6 °C 36.7 °F /  2.6 °C 30.09in /  1018.8hPa WSW 1.0mph /  1.6km/h 5.0mph /  8km/h 66% 0.00in /  0mm
19:34 47.2 °F /  8.4 °C 36.4 °F /  2.4 °C 30.09in /  1018.8hPa WSW 3.0mph /  4.8km/h 5.0mph /  8km/h 66% 0.00in /  0mm
19:39 47.0 °F /  8.3 °C 36.2 °F /  2.3 °C 30.09in /  1018.8hPa WSW 3.0mph /  4.8km/h 6.0mph /  9.7km/h 66% 0.00in /  0mm
19:44 46.7 °F /  8.2 °C 36.3 °F /  2.4 °C 30.09in /  1018.8hPa WSW 3.0mph /  4.8km/h 7.0mph /  11.3km/h 67% 0.00in /  0mm
19:49 46.4 °F /  8 °C 36.0 °F /  2.2 °C 30.09in /  1018.8hPa SW 4.0mph /  6.4km/h 7.0mph /  11.3km/h 67% 0.00in /  0mm
19:54 46.2 °F /  7.9 °C 36.2 °F /  2.3 °C 30.09in /  1018.8hPa SW 4.0mph /  6.4km/h 8.0mph /  12.9km/h 68% 0.00in /  0mm
19:59 45.9 °F /  7.7 °C 36.3 °F /  2.4 °C 30.09in /  1018.8hPa WSW 5.0mph /  8km/h 6.0mph /  9.7km/h 69% 0.00in /  0mm
20:04 45.6 °F /  7.6 °C 36.0 °F /  2.2 °C 30.09in /  1018.8hPa SW 4.0mph /  6.4km/h 7.0mph /  11.3km/h 69% 0.00in /  0mm
20:09 45.4 °F /  7.4 °C 36.5 °F /  2.5 °C 30.09in /  1018.8hPa SW 2.0mph /  3.2km/h 7.0mph /  11.3km/h 71% 0.00in /  0mm
20:14 44.9 °F /  7.2 °C 36.1 °F /  2.3 °C 30.09in /  1018.8hPa SW 2.0mph /  3.2km/h 5.0mph /  8km/h 71% 0.00in /  0mm
20:19 44.8 °F /  7.1 °C 36.3 °F /  2.4 °C 30.09in /  1018.8hPa WSW 2.0mph /  3.2km/h 6.0mph /  9.7km/h 72% 0.00in /  0mm
20:24 44.8 °F /  7.1 °C 36.3 °F /  2.4 °C 30.09in /  1018.8hPa SW 2.0mph /  3.2km/h 5.0mph /  8km/h 72% 0.00in /  0mm
20:29 44.6 °F /  7 °C 36.5 °F /  2.5 °C 30.09in /  1018.8hPa SW 3.0mph /  4.8km/h 5.0mph /  8km/h 73% 0.00in /  0mm
20:34 44.5 °F /  6.9 °C 36.4 °F /  2.4 °C 30.10in /  1019.2hPa SW 3.0mph /  4.8km/h 5.0mph /  8km/h 73% 0.00in /  0mm
20:39 44.4 °F /  6.9 °C 36.3 °F /  2.4 °C 30.09in /  1018.8hPa SW 3.0mph /  4.8km/h 8.0mph /  12.9km/h 73% 0.00in /  0mm
20:44 44.3 °F /  6.8 °C 36.2 °F /  2.3 °C 30.10in /  1019.2hPa WSW 4.0mph /  6.4km/h 8.0mph /  12.9km/h 73% 0.00in /  0mm
20:49 44.2 °F /  6.8 °C 36.1 °F /  2.3 °C 30.10in /  1019.2hPa West 2.0mph /  3.2km/h 6.0mph /  9.7km/h 73% 0.00in /  0mm
20:54 44.1 °F /  6.7 °C 36.0 °F /  2.2 °C 30.10in /  1019.2hPa West 3.0mph /  4.8km/h 6.0mph /  9.7km/h 73% 0.00in /  0mm
20:59 44.0 °F /  6.7 °C 35.9 °F /  2.2 °C 30.10in /  1019.2hPa WSW 3.0mph /  4.8km/h 6.0mph /  9.7km/h 73% 0.00in /  0mm
21:04 43.8 °F /  6.6 °C 35.7 °F /  2.1 °C 30.10in /  1019.2hPa WSW 3.0mph /  4.8km/h 6.0mph /  9.7km/h 73% 0.00in /  0mm
21:09 43.6 °F /  6.4 °C 35.5 °F /  1.9 °C 30.10in /  1019.2hPa WSW 2.0mph /  3.2km/h 4.0mph /  6.4km/h 73% 0.00in /  0mm
21:14 43.6 °F /  6.4 °C 35.5 °F /  1.9 °C 30.11in /  1019.5hPa West 2.0mph /  3.2km/h 5.0mph /  8km/h 73% 0.00in /  0mm
21:19 43.7 °F /  6.5 °C 35.6 °F /  2 °C 30.10in /  1019.2hPa WSW 3.0mph /  4.8km/h 5.0mph /  8km/h 73% 0.00in /  0mm
21:24 43.7 °F /  6.5 °C 35.6 °F /  2 °C 30.11in /  1019.5hPa West 3.0mph /  4.8km/h 5.0mph /  8km/h 73% 0.00in /  0mm
21:29 43.5 °F /  6.4 °C 35.4 °F /  1.9 °C 30.11in /  1019.5hPa West 2.0mph /  3.2km/h 5.0mph /  8km/h 73% 0.00in /  0mm
21:34 43.5 °F /  6.4 °C 35.4 °F /  1.9 °C 30.11in /  1019.5hPa West 2.0mph /  3.2km/h 4.0mph /  6.4km/h 73% 0.00in /  0mm
21:39 43.4 °F /  6.3 °C 35.3 °F /  1.8 °C 30.11in /  1019.5hPa West 3.0mph /  4.8km/h 4.0mph /  6.4km/h 73% 0.00in /  0mm
21:44 43.3 °F /  6.3 °C 35.2 °F /  1.8 °C 30.11in /  1019.5hPa West 3.0mph /  4.8km/h 3.0mph /  4.8km/h 73% 0.00in /  0mm
21:49 43.2 °F /  6.2 °C 35.5 °F /  1.9 °C 30.12in /  1019.9hPa West 2.0mph /  3.2km/h 3.0mph /  4.8km/h 74% 0.00in /  0mm
21:54 43.0 °F /  6.1 °C 35.3 °F /  1.8 °C 30.12in /  1019.9hPa West 2.0mph /  3.2km/h 3.0mph /  4.8km/h 74% 0.00in /  0mm
21:59 42.7 °F /  5.9 °C 35.3 °F /  1.8 °C 30.11in /  1019.5hPa West 1.0mph /  1.6km/h 3.0mph /  4.8km/h 75% 0.00in /  0mm
22:04 42.5 °F /  5.8 °C 35.1 °F /  1.7 °C 30.11in /  1019.5hPa West 1.0mph /  1.6km/h 3.0mph /  4.8km/h 75% 0.00in /  0mm
22:09 42.3 °F /  5.7 °C 35.3 °F /  1.8 °C 30.11in /  1019.5hPa West 1.0mph /  1.6km/h 2.0mph /  3.2km/h 76% 0.00in /  0mm
22:14 42.0 °F /  5.6 °C 35.0 °F /  1.7 °C 30.11in /  1019.5hPa Calm   2.0mph /  3.2km/h 76% 0.00in /  0mm
22:19 41.9 °F /  5.5 °C 35.2 °F /  1.8 °C 30.11in /  1019.5hPa Calm     77% 0.00in /  0mm
22:24 41.8 °F /  5.4 °C 35.1 °F /  1.7 °C 30.11in /  1019.5hPa Calm     77% 0.00in /  0mm
22:29 41.6 °F /  5.3 °C 34.9 °F /  1.6 °C 30.11in /  1019.5hPa Calm   2.0mph /  3.2km/h 77% 0.00in /  0mm
22:34 41.3 °F /  5.2 °C 34.6 °F /  1.4 °C 30.12in /  1019.9hPa Calm   2.0mph /  3.2km/h 77% 0.00in /  0mm
22:39 41.0 °F /  5 °C 34.7 °F /  1.5 °C 30.12in /  1019.9hPa Calm   1.0mph /  1.6km/h 78% 0.00in /  0mm
22:44 41.1 °F /  5.1 °C 34.8 °F /  1.6 °C 30.12in /  1019.9hPa Calm   2.0mph /  3.2km/h 78% 0.00in /  0mm
22:49 41.2 °F /  5.1 °C 34.9 °F /  1.6 °C 30.12in /  1019.9hPa Calm   2.0mph /  3.2km/h 78% 0.00in /  0mm
22:54 41.2 °F /  5.1 °C 34.9 °F /  1.6 °C 30.12in /  1019.9hPa West 1.0mph /  1.6km/h 3.0mph /  4.8km/h 78% 0.00in /  0mm
22:59 41.0 °F /  5 °C 34.7 °F /  1.5 °C 30.12in /  1019.9hPa Calm   3.0mph /  4.8km/h 78% 0.00in /  0mm
23:04 40.5 °F /  4.7 °C 34.5 °F /  1.4 °C 30.12in /  1019.9hPa Calm   2.0mph /  3.2km/h 79% 0.00in /  0mm
23:09 39.8 °F /  4.3 °C 34.1 °F /  1.2 °C 30.12in /  1019.9hPa Calm     80% 0.00in /  0mm
23:14 39.7 °F /  4.3 °C 34.3 °F /  1.3 °C 30.12in /  1019.9hPa Calm     81% 0.00in /  0mm
23:19 39.7 °F /  4.3 °C 34.3 °F /  1.3 °C 30.12in /  1019.9hPa Calm   2.0mph /  3.2km/h 81% 0.00in /  0mm
23:24 39.8 °F /  4.3 °C 34.4 °F /  1.3 °C 30.13in /  1020.2hPa Calm   2.0mph /  3.2km/h 81% 0.00in /  0mm
23:29 40.0 °F /  4.4 °C 34.6 °F /  1.4 °C 30.13in /  1020.2hPa Calm   2.0mph /  3.2km/h 81% 0.00in /  0mm
23:34 39.7 °F /  4.3 °C 34.3 °F /  1.3 °C 30.13in /  1020.2hPa Calm     81% 0.00in /  0mm
23:39 39.6 °F /  4.2 °C 34.2 °F /  1.2 °C 30.13in /  1020.2hPa Calm     81% 0.00in /  0mm
23:44 39.5 °F /  4.2 °C 34.5 °F /  1.4 °C 30.13in /  1020.2hPa Calm     82% 0.00in /  0mm
23:49 38.9 °F /  3.8 °C 33.9 °F /  1.1 °C 30.13in /  1020.2hPa Calm     82% 0.00in /  0mm
23:54 38.6 °F /  3.7 °C 33.9 °F /  1.1 °C 30.14in /  1020.5hPa Calm     83% 0.00in /  0mm
23:59 38.6 °F /  3.7 °C 34.2 °F /  1.2 °C 30.14in /  1020.5hPa Calm     84% 0.00in /  0mm
Buffalo, New York, USA
Compliments of Weather Underground - 2.5 mb